sensor_id;sensor_type;location;lat;lon;timestamp;temperature;humidity
40454;DHT22;26160;51.858;4.398;2023-06-01T00:00:01;12.40;99.90
40454;DHT22;26160;51.858;4.398;2023-06-01T00:02:28;12.40;99.90
40454;DHT22;26160;51.858;4.398;2023-06-01T00:04:54;12.30;99.90
40454;DHT22;26160;51.858;4.398;2023-06-01T00:07:20;12.30;99.90
40454;DHT22;26160;51.858;4.398;2023-06-01T00:09:46;12.40;99.90
40454;DHT22;26160;51.858;4.398;2023-06-01T00:12:12;12.40;99.90
40454;DHT22;26160;51.858;4.398;2023-06-01T00:14:40;12.40;99.90
40454;DHT22;26160;51.858;4.398;2023-06-01T00:17:06;12.40;99.90
40454;DHT22;26160;51.858;4.398;2023-06-01T00:19:33;12.40;99.90
40454;DHT22;26160;51.858;4.398;2023-06-01T00:22:00;12.40;99.90
40454;DHT22;26160;51.858;4.398;2023-06-01T00:24:26;12.40;99.90
40454;DHT22;26160;51.858;4.398;2023-06-01T00:26:52;12.40;99.90
40454;DHT22;26160;51.858;4.398;2023-06-01T00:29:19;12.40;99.90
40454;DHT22;26160;51.858;4.398;2023-06-01T00:31:49;12.40;99.90
40454;DHT22;26160;51.858;4.398;2023-06-01T00:34:15;12.40;99.90
40454;DHT22;26160;51.858;4.398;2023-06-01T00:36:41;12.30;99.90
40454;DHT22;26160;51.858;4.398;2023-06-01T00:39:07;12.30;99.90
40454;DHT22;26160;51.858;4.398;2023-06-01T00:41:34;12.30;99.90
40454;DHT22;26160;51.858;4.398;2023-06-01T00:44:00;12.30;99.90
40454;DHT22;26160;51.858;4.398;2023-06-01T00:46:27;12.20;99.90
40454;DHT22;26160;51.858;4.398;2023-06-01T00:48:55;12.20;99.90
40454;DHT22;26160;51.858;4.398;2023-06-01T00:51:22;12.20;99.90
40454;DHT22;26160;51.858;4.398;2023-06-01T00:53:48;12.30;99.90
40454;DHT22;26160;51.858;4.398;2023-06-01T00:56:15;12.30;99.90
40454;DHT22;26160;51.858;4.398;2023-06-01T00:58:43;12.40;99.90
40454;DHT22;26160;51.858;4.398;2023-06-01T01:03:47;12.20;99.90
40454;DHT22;26160;51.858;4.398;2023-06-01T01:09:13;12.10;99.90
40454;DHT22;26160;51.858;4.398;2023-06-01T01:11:52;12.20;99.90
40454;DHT22;26160;51.858;4.398;2023-06-01T01:14:39;12.10;99.90
40454;DHT22;26160;51.858;4.398;2023-06-01T01:20:03;12.10;99.90
40454;DHT22;26160;51.858;4.398;2023-06-01T01:25:39;12.00;99.90
40454;DHT22;26160;51.858;4.398;2023-06-01T01:31:15;12.00;99.90
40454;DHT22;26160;51.858;4.398;2023-06-01T01:33:41;11.90;99.90
40454;DHT22;26160;51.858;4.398;2023-06-01T01:36:10;12.00;99.90
40454;DHT22;26160;51.858;4.398;2023-06-01T01:38:37;12.00;99.90
40454;DHT22;26160;51.858;4.398;2023-06-01T01:41:03;12.00;99.90
40454;DHT22;26160;51.858;4.398;2023-06-01T01:43:31;12.00;99.90
40454;DHT22;26160;51.858;4.398;2023-06-01T01:46:25;12.10;99.90
40454;DHT22;26160;51.858;4.398;2023-06-01T01:48:56;12.00;99.90
40454;DHT22;26160;51.858;4.398;2023-06-01T01:51:29;12.00;99.90
40454;DHT22;26160;51.858;4.398;2023-06-01T01:54:04;12.00;99.90
40454;DHT22;26160;51.858;4.398;2023-06-01T01:56:31;11.90;99.90
40454;DHT22;26160;51.858;4.398;2023-06-01T01:58:58;11.90;99.90
40454;DHT22;26160;51.858;4.398;2023-06-01T02:01:25;11.80;99.90
40454;DHT22;26160;51.858;4.398;2023-06-01T02:07:13;11.90;99.90
40454;DHT22;26160;51.858;4.398;2023-06-01T02:09:47;11.90;99.90
40454;DHT22;26160;51.858;4.398;2023-06-01T02:12:13;11.90;99.90
40454;DHT22;26160;51.858;4.398;2023-06-01T02:14:40;12.00;99.90
40454;DHT22;26160;51.858;4.398;2023-06-01T02:17:06;12.00;99.90
40454;DHT22;26160;51.858;4.398;2023-06-01T02:19:40;11.90;99.90
40454;DHT22;26160;51.858;4.398;2023-06-01T02:22:08;11.90;99.90
40454;DHT22;26160;51.858;4.398;2023-06-01T02:24:41;11.90;99.90
40454;DHT22;26160;51.858;4.398;2023-06-01T02:27:07;11.90;99.90
40454;DHT22;26160;51.858;4.398;2023-06-01T02:29:33;12.00;99.90
40454;DHT22;26160;51.858;4.398;2023-06-01T02:31:59;11.90;99.90
40454;DHT22;26160;51.858;4.398;2023-06-01T02:34:25;11.90;99.90
40454;DHT22;26160;51.858;4.398;2023-06-01T02:37:00;11.90;99.90
40454;DHT22;26160;51.858;4.398;2023-06-01T02:39:26;11.80;99.90
40454;DHT22;26160;51.858;4.398;2023-06-01T02:42:07;11.90;99.90
40454;DHT22;26160;51.858;4.398;2023-06-01T02:44:51;11.80;99.90
40454;DHT22;26160;51.858;4.398;2023-06-01T02:47:17;11.90;99.90
40454;DHT22;26160;51.858;4.398;2023-06-01T02:49:58;12.00;99.90
40454;DHT22;26160;51.858;4.398;2023-06-01T02:52:24;11.90;99.90
40454;DHT22;26160;51.858;4.398;2023-06-01T02:54:50;12.00;99.90
40454;DHT22;26160;51.858;4.398;2023-06-01T02:57:19;11.90;99.90
40454;DHT22;26160;51.858;4.398;2023-06-01T02:59:47;11.90;99.90
40454;DHT22;26160;51.858;4.398;2023-06-01T03:02:13;11.90;99.90
40454;DHT22;26160;51.858;4.398;2023-06-01T03:04:54;12.00;99.90
40454;DHT22;26160;51.858;4.398;2023-06-01T03:07:20;11.90;99.90
40454;DHT22;26160;51.858;4.398;2023-06-01T03:09:52;11.90;99.90
40454;DHT22;26160;51.858;4.398;2023-06-01T03:12:32;11.80;99.90
40454;DHT22;26160;51.858;4.398;2023-06-01T03:14:58;11.80;99.90
40454;DHT22;26160;51.858;4.398;2023-06-01T03:17:24;11.70;99.90
40454;DHT22;26160;51.858;4.398;2023-06-01T03:19:51;11.80;99.90
40454;DHT22;26160;51.858;4.398;2023-06-01T03:22:17;11.80;99.90
40454;DHT22;26160;51.858;4.398;2023-06-01T03:24:43;11.80;99.90
40454;DHT22;26160;51.858;4.398;2023-06-01T03:27:10;11.70;99.90
40454;DHT22;26160;51.858;4.398;2023-06-01T03:29:39;11.70;99.90
40454;DHT22;26160;51.858;4.398;2023-06-01T03:32:07;11.60;99.90
40454;DHT22;26160;51.858;4.398;2023-06-01T03:34:33;11.70;99.90
40454;DHT22;26160;51.858;4.398;2023-06-01T03:37:02;11.70;99.90
40454;DHT22;26160;51.858;4.398;2023-06-01T03:39:30;11.70;99.90
40454;DHT22;26160;51.858;4.398;2023-06-01T03:41:59;11.70;99.90
40454;DHT22;26160;51.858;4.398;2023-06-01T03:44:26;11.60;99.90
40454;DHT22;26160;51.858;4.398;2023-06-01T03:46:52;11.70;99.90
40454;DHT22;26160;51.858;4.398;2023-06-01T03:49:18;11.70;99.90
40454;DHT22;26160;51.858;4.398;2023-06-01T03:51:44;11.70;99.90
40454;DHT22;26160;51.858;4.398;2023-06-01T03:54:13;11.70;99.90
40454;DHT22;26160;51.858;4.398;2023-06-01T03:56:45;11.70;99.90
40454;DHT22;26160;51.858;4.398;2023-06-01T03:59:17;11.70;99.90
40454;DHT22;26160;51.858;4.398;2023-06-01T04:01:43;11.80;99.90
40454;DHT22;26160;51.858;4.398;2023-06-01T04:04:10;11.80;99.90
40454;DHT22;26160;51.858;4.398;2023-06-01T04:06:39;11.80;99.90
40454;DHT22;26160;51.858;4.398;2023-06-01T04:09:08;11.70;99.90
40454;DHT22;26160;51.858;4.398;2023-06-01T04:11:39;11.70;99.90
40454;DHT22;26160;51.858;4.398;2023-06-01T04:14:05;11.70;99.90
40454;DHT22;26160;51.858;4.398;2023-06-01T04:16:31;11.70;99.90
40454;DHT22;26160;51.858;4.398;2023-06-01T04:18:57;11.70;99.90
40454;DHT22;26160;51.858;4.398;2023-06-01T04:21:23;11.80;99.90
40454;DHT22;26160;51.858;4.398;2023-06-01T04:23:50;11.80;99.90
40454;DHT22;26160;51.858;4.398;2023-06-01T04:26:16;11.80;99.90
40454;DHT22;26160;51.858;4.398;2023-06-01T04:28:44;11.70;99.90
40454;DHT22;26160;51.858;4.398;2023-06-01T04:31:13;11.70;99.90
40454;DHT22;26160;51.858;4.398;2023-06-01T04:33:43;11.70;99.90
40454;DHT22;26160;51.858;4.398;2023-06-01T04:36:16;11.80;99.90
40454;DHT22;26160;51.858;4.398;2023-06-01T04:38:45;11.80;99.90
40454;DHT22;26160;51.858;4.398;2023-06-01T04:41:17;11.80;99.90
40454;DHT22;26160;51.858;4.398;2023-06-01T04:54:45;11.80;99.90
40454;DHT22;26160;51.858;4.398;2023-06-01T04:57:37;11.90;99.90
40454;DHT22;26160;51.858;4.398;2023-06-01T05:02:56;12.00;99.90
40454;DHT22;26160;51.858;4.398;2023-06-01T05:05:26;12.10;99.90
40454;DHT22;26160;51.858;4.398;2023-06-01T05:41:42;12.50;99.90
40454;DHT22;26160;51.858;4.398;2023-06-01T05:47:07;12.30;99.90
40454;DHT22;26160;51.858;4.398;2023-06-01T06:28:42;13.40;97.50
40454;DHT22;26160;51.858;4.398;2023-06-01T06:31:08;13.00;99.90
40454;DHT22;26160;51.858;4.398;2023-06-01T06:33:35;12.70;99.90
40454;DHT22;26160;51.858;4.398;2023-06-01T06:38:39;12.80;99.90
40454;DHT22;26160;51.858;4.398;2023-06-01T06:41:10;12.60;99.90
40454;DHT22;26160;51.858;4.398;2023-06-01T06:43:44;12.60;99.90
40454;DHT22;26160;51.858;4.398;2023-06-01T06:46:11;12.80;99.90
40454;DHT22;26160;51.858;4.398;2023-06-01T06:48:39;13.00;99.90
40454;DHT22;26160;51.858;4.398;2023-06-01T06:51:05;13.20;99.90
40454;DHT22;26160;51.858;4.398;2023-06-01T06:53:32;13.30;99.90
40454;DHT22;26160;51.858;4.398;2023-06-01T06:55:59;13.40;99.90
40454;DHT22;26160;51.858;4.398;2023-06-01T06:58:25;13.40;99.90
40454;DHT22;26160;51.858;4.398;2023-06-01T07:00:53;13.40;99.90
40454;DHT22;26160;51.858;4.398;2023-06-01T07:03:20;13.60;99.90
40454;DHT22;26160;51.858;4.398;2023-06-01T07:05:57;14.10;99.90
40454;DHT22;26160;51.858;4.398;2023-06-01T07:08:30;14.50;92.80
40454;DHT22;26160;51.858;4.398;2023-06-01T07:11:10;14.70;70.70
40454;DHT22;26160;51.858;4.398;2023-06-01T07:21:02;14.20;91.60
40454;DHT22;26160;51.858;4.398;2023-06-01T07:23:31;14.30;93.40
40454;DHT22;26160;51.858;4.398;2023-06-01T07:25:58;14.50;94.70
40454;DHT22;26160;51.858;4.398;2023-06-01T07:28:24;14.70;87.80
40454;DHT22;26160;51.858;4.398;2023-06-01T07:31:02;15.20;77.10
40454;DHT22;26160;51.858;4.398;2023-06-01T07:34:28;15.90;82.90
40454;DHT22;26160;51.858;4.398;2023-06-01T08:16:04;17.20;1.00
40454;DHT22;26160;51.858;4.398;2023-06-01T11:29:28;22.00;1.00
40454;DHT22;26160;51.858;4.398;2023-06-01T11:49:18;22.20;99.90
40454;DHT22;26160;51.858;4.398;2023-06-01T11:52:26;21.80;1.00
40454;DHT22;26160;51.858;4.398;2023-06-01T12:00:34;21.90;1.00
40454;DHT22;26160;51.858;4.398;2023-06-01T12:19:48;21.70;1.00
40454;DHT22;26160;51.858;4.398;2023-06-01T12:22:21;21.50;99.90
40454;DHT22;26160;51.858;4.398;2023-06-01T12:25:29;21.50;1.00
40454;DHT22;26160;51.858;4.398;2023-06-01T12:40:40;21.60;1.00
40454;DHT22;26160;51.858;4.398;2023-06-01T12:43:30;21.50;1.00
40454;DHT22;26160;51.858;4.398;2023-06-01T12:46:04;21.40;1.00
40454;DHT22;26160;51.858;4.398;2023-06-01T12:51:22;21.40;1.00
40454;DHT22;26160;51.858;4.398;2023-06-01T12:53:48;21.20;1.00
40454;DHT22;26160;51.858;4.398;2023-06-01T12:56:16;21.20;1.00
40454;DHT22;26160;51.858;4.398;2023-06-01T12:59:05;21.40;1.00
40454;DHT22;26160;51.858;4.398;2023-06-01T13:06:52;21.00;1.00
40454;DHT22;26160;51.858;4.398;2023-06-01T13:09:18;21.20;99.90
40454;DHT22;26160;51.858;4.398;2023-06-01T13:12:05;21.30;1.00
40454;DHT22;26160;51.858;4.398;2023-06-01T13:14:49;21.30;1.00
40454;DHT22;26160;51.858;4.398;2023-06-01T13:17:15;21.00;1.00
40454;DHT22;26160;51.858;4.398;2023-06-01T13:22:21;20.80;1.00
40454;DHT22;26160;51.858;4.398;2023-06-01T13:24:47;20.70;1.00
40454;DHT22;26160;51.858;4.398;2023-06-01T13:33:14;20.70;99.90
40454;DHT22;26160;51.858;4.398;2023-06-01T13:35:40;20.80;1.00
40454;DHT22;26160;51.858;4.398;2023-06-01T14:00:01;20.50;99.90
40454;DHT22;26160;51.858;4.398;2023-06-01T14:03:03;20.50;99.90
40454;DHT22;26160;51.858;4.398;2023-06-01T14:05:51;20.30;1.00
40454;DHT22;26160;51.858;4.398;2023-06-01T14:11:37;19.90;1.00
40454;DHT22;26160;51.858;4.398;2023-06-01T14:19:37;20.20;99.90
40454;DHT22;26160;51.858;4.398;2023-06-01T14:22:08;20.00;1.00
40454;DHT22;26160;51.858;4.398;2023-06-01T14:36:45;20.00;1.00
40454;DHT22;26160;51.858;4.398;2023-06-01T14:49:56;19.10;99.90
40454;DHT22;26160;51.858;4.398;2023-06-01T14:52:46;19.50;99.90
40454;DHT22;26160;51.858;4.398;2023-06-01T14:55:35;19.60;1.00
40454;DHT22;26160;51.858;4.398;2023-06-01T15:00:47;19.40;99.90
40454;DHT22;26160;51.858;4.398;2023-06-01T15:03:45;19.00;1.00
40454;DHT22;26160;51.858;4.398;2023-06-01T15:06:21;18.50;99.90
40454;DHT22;26160;51.858;4.398;2023-06-01T15:08:47;18.10;1.00
40454;DHT22;26160;51.858;4.398;2023-06-01T15:11:14;17.80;1.00
40454;DHT22;26160;51.858;4.398;2023-06-01T15:13:40;17.60;99.90
40454;DHT22;26160;51.858;4.398;2023-06-01T15:16:07;17.80;99.90
40454;DHT22;26160;51.858;4.398;2023-06-01T15:18:34;17.70;99.90
40454;DHT22;26160;51.858;4.398;2023-06-01T15:21:00;17.90;1.00
40454;DHT22;26160;51.858;4.398;2023-06-01T15:23:30;17.80;99.90
40454;DHT22;26160;51.858;4.398;2023-06-01T15:25:56;17.40;1.00
40454;DHT22;26160;51.858;4.398;2023-06-01T15:33:34;17.00;1.00
40454;DHT22;26160;51.858;4.398;2023-06-01T15:36:02;17.20;1.00
40454;DHT22;26160;51.858;4.398;2023-06-01T15:39:02;17.10;99.90
40454;DHT22;26160;51.858;4.398;2023-06-01T15:42:08;16.90;99.90
40454;DHT22;26160;51.858;4.398;2023-06-01T15:44:42;16.70;1.00
40454;DHT22;26160;51.858;4.398;2023-06-01T15:47:23;16.70;99.90
40454;DHT22;26160;51.858;4.398;2023-06-01T15:49:51;16.50;1.00
40454;DHT22;26160;51.858;4.398;2023-06-01T15:52:33;16.60;1.00
40454;DHT22;26160;51.858;4.398;2023-06-01T15:55:18;16.40;1.00
40454;DHT22;26160;51.858;4.398;2023-06-01T15:57:55;16.60;1.00
40454;DHT22;26160;51.858;4.398;2023-06-01T16:00:23;16.60;1.00
40454;DHT22;26160;51.858;4.398;2023-06-01T16:02:49;16.50;99.90
40454;DHT22;26160;51.858;4.398;2023-06-01T16:05:15;16.30;1.00
40454;DHT22;26160;51.858;4.398;2023-06-01T16:07:43;16.30;1.00
40454;DHT22;26160;51.858;4.398;2023-06-01T16:10:12;16.40;1.00
40454;DHT22;26160;51.858;4.398;2023-06-01T16:12:39;16.60;99.90
40454;DHT22;26160;51.858;4.398;2023-06-01T16:15:06;16.80;99.90
40454;DHT22;26160;51.858;4.398;2023-06-01T16:17:32;16.70;1.00
40454;DHT22;26160;51.858;4.398;2023-06-01T16:19:59;16.70;1.00
40454;DHT22;26160;51.858;4.398;2023-06-01T16:22:26;16.70;1.00
40454;DHT22;26160;51.858;4.398;2023-06-01T16:24:59;16.80;1.00
40454;DHT22;26160;51.858;4.398;2023-06-01T16:27:26;17.00;53.40
40454;DHT22;26160;51.858;4.398;2023-06-01T16:29:59;16.90;1.00
40454;DHT22;26160;51.858;4.398;2023-06-01T16:32:31;16.70;1.00
40454;DHT22;26160;51.858;4.398;2023-06-01T16:34:58;16.70;1.00
40454;DHT22;26160;51.858;4.398;2023-06-01T16:37:24;16.40;1.00
40454;DHT22;26160;51.858;4.398;2023-06-01T16:39:51;16.10;1.00
40454;DHT22;26160;51.858;4.398;2023-06-01T16:42:17;16.20;1.00
40454;DHT22;26160;51.858;4.398;2023-06-01T16:44:43;16.30;1.00
40454;DHT22;26160;51.858;4.398;2023-06-01T16:47:09;16.30;1.00
40454;DHT22;26160;51.858;4.398;2023-06-01T16:49:35;16.10;90.30
40454;DHT22;26160;51.858;4.398;2023-06-01T16:52:05;16.10;99.90
40454;DHT22;26160;51.858;4.398;2023-06-01T16:54:34;16.00;1.00
40454;DHT22;26160;51.858;4.398;2023-06-01T16:57:01;15.90;99.90
40454;DHT22;26160;51.858;4.398;2023-06-01T16:59:27;15.80;99.90
40454;DHT22;26160;51.858;4.398;2023-06-01T17:01:53;15.80;99.90
40454;DHT22;26160;51.858;4.398;2023-06-01T17:04:19;15.80;1.00
40454;DHT22;26160;51.858;4.398;2023-06-01T17:06:48;15.70;99.90
40454;DHT22;26160;51.858;4.398;2023-06-01T17:09:14;15.40;1.00
40454;DHT22;26160;51.858;4.398;2023-06-01T17:11:40;15.30;1.00
40454;DHT22;26160;51.858;4.398;2023-06-01T17:14:06;15.40;1.00
40454;DHT22;26160;51.858;4.398;2023-06-01T17:16:33;15.40;1.00
40454;DHT22;26160;51.858;4.398;2023-06-01T17:18:59;15.40;1.00
40454;DHT22;26160;51.858;4.398;2023-06-01T17:21:25;15.40;1.00
40454;DHT22;26160;51.858;4.398;2023-06-01T17:23:54;15.50;1.00
40454;DHT22;26160;51.858;4.398;2023-06-01T17:26:20;15.50;1.00
40454;DHT22;26160;51.858;4.398;2023-06-01T17:28:46;15.30;1.00
40454;DHT22;26160;51.858;4.398;2023-06-01T17:31:12;15.30;1.00
40454;DHT22;26160;51.858;4.398;2023-06-01T17:33:39;15.30;1.00
40454;DHT22;26160;51.858;4.398;2023-06-01T17:36:06;15.20;1.00
40454;DHT22;26160;51.858;4.398;2023-06-01T17:38:32;15.20;1.00
40454;DHT22;26160;51.858;4.398;2023-06-01T17:40:58;15.20;1.00
40454;DHT22;26160;51.858;4.398;2023-06-01T17:43:25;15.10;1.00
40454;DHT22;26160;51.858;4.398;2023-06-01T17:45:51;15.00;1.00
40454;DHT22;26160;51.858;4.398;2023-06-01T17:48:17;15.00;1.00
40454;DHT22;26160;51.858;4.398;2023-06-01T17:50:43;15.00;1.00
40454;DHT22;26160;51.858;4.398;2023-06-01T17:53:09;14.90;1.00
40454;DHT22;26160;51.858;4.398;2023-06-01T17:55:36;14.80;1.00
40454;DHT22;26160;51.858;4.398;2023-06-01T17:58:02;14.80;1.00
40454;DHT22;26160;51.858;4.398;2023-06-01T18:00:28;14.80;1.00
40454;DHT22;26160;51.858;4.398;2023-06-01T18:02:54;14.80;1.00
40454;DHT22;26160;51.858;4.398;2023-06-01T18:05:21;14.80;1.00
40454;DHT22;26160;51.858;4.398;2023-06-01T18:07:47;14.80;1.00
40454;DHT22;26160;51.858;4.398;2023-06-01T18:10:14;14.80;1.00
40454;DHT22;26160;51.858;4.398;2023-06-01T18:12:40;14.80;1.00
40454;DHT22;26160;51.858;4.398;2023-06-01T18:15:06;14.80;1.00
40454;DHT22;26160;51.858;4.398;2023-06-01T18:17:32;14.70;1.00
40454;DHT22;26160;51.858;4.398;2023-06-01T18:20:02;14.70;1.00
40454;DHT22;26160;51.858;4.398;2023-06-01T18:22:30;14.60;1.00
40454;DHT22;26160;51.858;4.398;2023-06-01T18:24:56;14.60;1.00
40454;DHT22;26160;51.858;4.398;2023-06-01T18:27:22;14.50;1.00
40454;DHT22;26160;51.858;4.398;2023-06-01T18:29:48;14.40;1.00
40454;DHT22;26160;51.858;4.398;2023-06-01T18:32:14;14.20;1.00
40454;DHT22;26160;51.858;4.398;2023-06-01T18:34:40;14.40;1.00
40454;DHT22;26160;51.858;4.398;2023-06-01T18:37:06;14.20;1.00
40454;DHT22;26160;51.858;4.398;2023-06-01T18:39:33;14.20;1.00
40454;DHT22;26160;51.858;4.398;2023-06-01T18:41:59;14.10;1.00
40454;DHT22;26160;51.858;4.398;2023-06-01T18:44:25;14.10;1.00
40454;DHT22;26160;51.858;4.398;2023-06-01T18:46:52;14.10;1.00
40454;DHT22;26160;51.858;4.398;2023-06-01T18:49:18;14.10;1.00
40454;DHT22;26160;51.858;4.398;2023-06-01T18:51:44;14.00;1.00
40454;DHT22;26160;51.858;4.398;2023-06-01T18:54:11;13.90;1.00
40454;DHT22;26160;51.858;4.398;2023-06-01T18:56:37;13.90;1.00
40454;DHT22;26160;51.858;4.398;2023-06-01T18:59:03;13.80;1.00
40454;DHT22;26160;51.858;4.398;2023-06-01T19:01:29;13.80;3.20
40454;DHT22;26160;51.858;4.398;2023-06-01T19:03:55;13.80;1.00
40454;DHT22;26160;51.858;4.398;2023-06-01T19:06:21;13.80;1.00
40454;DHT22;26160;51.858;4.398;2023-06-01T19:08:49;13.80;1.00
40454;DHT22;26160;51.858;4.398;2023-06-01T19:11:17;13.80;1.00
40454;DHT22;26160;51.858;4.398;2023-06-01T19:13:45;13.80;1.00
40454;DHT22;26160;51.858;4.398;2023-06-01T19:16:19;13.80;1.00
40454;DHT22;26160;51.858;4.398;2023-06-01T19:18:58;13.70;4.50
40454;DHT22;26160;51.858;4.398;2023-06-01T19:21:30;13.70;1.00
40454;DHT22;26160;51.858;4.398;2023-06-01T19:24:02;13.70;1.00
40454;DHT22;26160;51.858;4.398;2023-06-01T19:26:34;13.60;1.00
40454;DHT22;26160;51.858;4.398;2023-06-01T19:29:02;13.50;2.70
40454;DHT22;26160;51.858;4.398;2023-06-01T19:31:31;13.50;3.70
40454;DHT22;26160;51.858;4.398;2023-06-01T19:33:58;13.50;16.00
40454;DHT22;26160;51.858;4.398;2023-06-01T19:39:28;13.50;6.80
40454;DHT22;26160;51.858;4.398;2023-06-01T19:44:45;13.40;22.60
40454;DHT22;26160;51.858;4.398;2023-06-01T19:47:45;13.40;21.30
40454;DHT22;26160;51.858;4.398;2023-06-01T19:53:00;13.30;30.40
40454;DHT22;26160;51.858;4.398;2023-06-01T19:55:30;13.40;33.50
40454;DHT22;26160;51.858;4.398;2023-06-01T19:58:01;13.50;16.40
40454;DHT22;26160;51.858;4.398;2023-06-01T20:00:43;13.40;20.60
40454;DHT22;26160;51.858;4.398;2023-06-01T20:03:54;13.50;25.10
40454;DHT22;26160;51.858;4.398;2023-06-01T20:06:57;13.50;29.50
40454;DHT22;26160;51.858;4.398;2023-06-01T20:09:28;13.40;26.60
40454;DHT22;26160;51.858;4.398;2023-06-01T20:12:13;13.50;26.40
40454;DHT22;26160;51.858;4.398;2023-06-01T20:14:51;13.40;22.40
40454;DHT22;26160;51.858;4.398;2023-06-01T20:18:04;13.40;25.20
40454;DHT22;26160;51.858;4.398;2023-06-01T20:20:40;13.20;13.10
40454;DHT22;26160;51.858;4.398;2023-06-01T20:23:31;13.20;11.80
40454;DHT22;26160;51.858;4.398;2023-06-01T20:26:45;13.20;13.20
40454;DHT22;26160;51.858;4.398;2023-06-01T20:32:42;13.30;5.90
40454;DHT22;26160;51.858;4.398;2023-06-01T20:35:08;13.20;1.00
40454;DHT22;26160;51.858;4.398;2023-06-01T20:37:36;13.20;8.60
40454;DHT22;26160;51.858;4.398;2023-06-01T20:40:12;13.20;12.90
40454;DHT22;26160;51.858;4.398;2023-06-01T20:42:39;13.20;12.90
40454;DHT22;26160;51.858;4.398;2023-06-01T20:51:57;13.00;21.20
40454;DHT22;26160;51.858;4.398;2023-06-01T21:01:51;12.90;1.00
40454;DHT22;26160;51.858;4.398;2023-06-01T21:04:28;12.80;1.00
40454;DHT22;26160;51.858;4.398;2023-06-01T21:07:08;12.80;1.00
40454;DHT22;26160;51.858;4.398;2023-06-01T21:09:34;12.90;1.00
40454;DHT22;26160;51.858;4.398;2023-06-01T21:12:00;12.80;1.00
40454;DHT22;26160;51.858;4.398;2023-06-01T21:14:27;12.80;1.00
40454;DHT22;26160;51.858;4.398;2023-06-01T21:27:25;12.80;1.00
40454;DHT22;26160;51.858;4.398;2023-06-01T21:37:14;12.70;1.00
40454;DHT22;26160;51.858;4.398;2023-06-01T21:39:42;12.70;1.00
40454;DHT22;26160;51.858;4.398;2023-06-01T21:42:08;12.70;5.40
40454;DHT22;26160;51.858;4.398;2023-06-01T21:45:01;12.80;1.00
40454;DHT22;26160;51.858;4.398;2023-06-01T21:47:37;12.80;2.40
40454;DHT22;26160;51.858;4.398;2023-06-01T21:52:42;12.70;1.00
40454;DHT22;26160;51.858;4.398;2023-06-01T21:55:15;12.70;1.00
40454;DHT22;26160;51.858;4.398;2023-06-01T21:58:08;12.70;7.00
40454;DHT22;26160;51.858;4.398;2023-06-01T22:00:51;12.70;3.20
40454;DHT22;26160;51.858;4.398;2023-06-01T22:03:24;12.70;1.00
40454;DHT22;26160;51.858;4.398;2023-06-01T22:05:55;12.60;1.30
40454;DHT22;26160;51.858;4.398;2023-06-01T22:08:21;12.60;7.00
40454;DHT22;26160;51.858;4.398;2023-06-01T22:11:15;12.60;2.90
40454;DHT22;26160;51.858;4.398;2023-06-01T22:13:41;12.50;1.00
40454;DHT22;26160;51.858;4.398;2023-06-01T22:16:16;12.50;2.10
40454;DHT22;26160;51.858;4.398;2023-06-01T22:18:51;12.60;1.00
40454;DHT22;26160;51.858;4.398;2023-06-01T22:21:17;12.50;2.80
40454;DHT22;26160;51.858;4.398;2023-06-01T22:23:46;12.40;1.00
40454;DHT22;26160;51.858;4.398;2023-06-01T22:26:13;12.50;11.10
40454;DHT22;26160;51.858;4.398;2023-06-01T22:28:39;12.50;13.80
40454;DHT22;26160;51.858;4.398;2023-06-01T22:31:06;12.50;15.40
40454;DHT22;26160;51.858;4.398;2023-06-01T22:33:32;12.50;1.00
40454;DHT22;26160;51.858;4.398;2023-06-01T22:36:01;12.50;1.20
40454;DHT22;26160;51.858;4.398;2023-06-01T22:38:28;12.50;1.00
40454;DHT22;26160;51.858;4.398;2023-06-01T22:40:57;12.40;1.00
40454;DHT22;26160;51.858;4.398;2023-06-01T22:43:23;12.50;9.10
40454;DHT22;26160;51.858;4.398;2023-06-01T22:45:49;12.40;1.00
40454;DHT22;26160;51.858;4.398;2023-06-01T22:48:28;12.30;1.00
40454;DHT22;26160;51.858;4.398;2023-06-01T22:50:54;12.30;1.00
40454;DHT22;26160;51.858;4.398;2023-06-01T22:53:25;12.30;1.00
40454;DHT22;26160;51.858;4.398;2023-06-01T22:55:52;12.30;1.00
40454;DHT22;26160;51.858;4.398;2023-06-01T22:58:22;12.30;1.00
40454;DHT22;26160;51.858;4.398;2023-06-01T23:00:49;12.20;1.00
40454;DHT22;26160;51.858;4.398;2023-06-01T23:03:16;12.10;1.00
40454;DHT22;26160;51.858;4.398;2023-06-01T23:05:42;12.10;1.00
40454;DHT22;26160;51.858;4.398;2023-06-01T23:08:09;12.00;1.00
40454;DHT22;26160;51.858;4.398;2023-06-01T23:10:51;12.00;1.00
40454;DHT22;26160;51.858;4.398;2023-06-01T23:13:19;12.00;1.00
40454;DHT22;26160;51.858;4.398;2023-06-01T23:15:51;12.00;1.00
40454;DHT22;26160;51.858;4.398;2023-06-01T23:18:23;12.00;1.00
40454;DHT22;26160;51.858;4.398;2023-06-01T23:20:50;12.00;1.00
40454;DHT22;26160;51.858;4.398;2023-06-01T23:23:24;11.90;1.00
40454;DHT22;26160;51.858;4.398;2023-06-01T23:25:52;11.80;1.00
40454;DHT22;26160;51.858;4.398;2023-06-01T23:28:21;11.80;1.00
40454;DHT22;26160;51.858;4.398;2023-06-01T23:30:47;11.90;1.00
40454;DHT22;26160;51.858;4.398;2023-06-01T23:33:15;11.90;1.00
40454;DHT22;26160;51.858;4.398;2023-06-01T23:35:42;12.00;1.00
40454;DHT22;26160;51.858;4.398;2023-06-01T23:38:16;11.90;1.00
40454;DHT22;26160;51.858;4.398;2023-06-01T23:40:44;11.90;1.00
40454;DHT22;26160;51.858;4.398;2023-06-01T23:43:25;11.90;1.00
40454;DHT22;26160;51.858;4.398;2023-06-01T23:45:51;11.90;1.00
40454;DHT22;26160;51.858;4.398;2023-06-01T23:48:19;12.00;1.00
40454;DHT22;26160;51.858;4.398;2023-06-01T23:50:45;12.00;1.00
40454;DHT22;26160;51.858;4.398;2023-06-01T23:53:11;11.90;1.00
40454;DHT22;26160;51.858;4.398;2023-06-01T23:55:37;11.90;1.00
40454;DHT22;26160;51.858;4.398;2023-06-01T23:58:03;12.00;1.00
